createdAt,value
2019-03-09T00:01:10.042Z,100314.75
2019-03-09T00:02:16.998Z,100310.56
2019-03-09T00:03:24.056Z,100309.67
2019-03-09T00:04:31.960Z,100301.19
2019-03-09T00:05:38.930Z,100302.44
2019-03-09T00:06:46.006Z,100296.11
2019-03-09T00:07:53.330Z,100303.35
2019-03-09T00:09:00.046Z,100293.22
2019-03-09T00:10:07.627Z,100287.23
2019-03-09T00:11:14.451Z,100287.19
2019-03-09T00:12:21.160Z,100289.33
2019-03-09T00:13:28.123Z,100293.57
2019-03-09T00:14:34.874Z,100289.35
2019-03-09T00:15:42.031Z,100282.48
2019-03-09T00:16:48.697Z,100278.69
2019-03-09T00:17:56.075Z,100279.17
2019-03-09T00:19:02.732Z,100283.47
2019-03-09T00:20:09.617Z,100274.61
2019-03-09T00:21:16.801Z,100268.17
2019-03-09T00:22:24.007Z,100268.16
2019-03-09T00:23:48.624Z,100264.80
2019-03-09T00:25:03.986Z,100269.52
2019-03-09T00:26:18.186Z,100262.72
2019-03-09T00:27:49.870Z,100264.36
2019-03-09T00:29:15.666Z,100266.05
2019-03-09T00:30:41.692Z,100261.34
2019-03-09T00:31:53.018Z,100260.95
2019-03-09T00:33:01.473Z,100260.94
2019-03-09T00:34:08.974Z,100255.86
2019-03-09T00:35:15.709Z,100247.42
2019-03-09T00:36:22.563Z,100252.90
2019-03-09T00:37:29.507Z,100245.70
2019-03-09T00:38:36.242Z,100243.16
2019-03-09T00:39:43.039Z,100242.70
2019-03-09T00:40:50.145Z,100240.61
2019-03-09T00:41:57.043Z,100237.63
2019-03-09T00:43:04.467Z,100236.80
2019-03-09T00:44:11.337Z,100228.73
2019-03-09T00:45:18.143Z,100235.96
2019-03-09T00:46:25.031Z,100234.61
2019-03-09T00:47:31.922Z,100233.42
2019-03-09T00:48:39.077Z,100224.88
2019-03-09T00:49:46.463Z,100213.86
2019-03-09T00:50:53.319Z,100216.38
2019-03-09T00:52:00.601Z,100213.84
2019-03-09T00:53:07.408Z,100214.67
2019-03-09T00:54:15.170Z,100209.16
2019-03-09T00:55:22.431Z,100206.13
2019-03-09T00:56:29.502Z,100194.30
2019-03-09T00:57:36.228Z,100191.31
2019-03-09T00:58:43.171Z,100181.55
2019-03-09T00:59:52.178Z,100180.25
2019-03-09T01:00:59.481Z,100172.22
2019-03-09T01:02:06.631Z,100170.92
2019-03-09T01:03:13.662Z,100170.56
2019-03-09T01:04:20.362Z,100162.06
2019-03-09T01:05:27.841Z,100163.73
2019-03-09T01:06:35.249Z,100154.42
2019-03-09T01:07:42.034Z,100154.03
2019-03-09T01:08:48.701Z,100150.60
2019-03-09T01:09:55.415Z,100149.33
2019-03-09T01:11:02.675Z,100140.88
2019-03-09T01:12:09.359Z,100137.48
2019-03-09T01:13:16.534Z,100138.71
2019-03-09T01:14:23.593Z,100125.13
2019-03-09T01:15:30.352Z,100128.09
2019-03-09T01:16:37.076Z,100120.89
2019-03-09T01:17:43.793Z,100125.52
2019-03-09T01:18:50.437Z,100114.89
2019-03-09T01:19:57.192Z,100119.95
2019-03-09T01:21:04.168Z,100120.42
2019-03-09T01:22:10.887Z,100111.06
2019-03-09T01:23:17.549Z,100110.23
2019-03-09T01:24:24.220Z,100089.01
2019-03-09T01:25:30.942Z,100102.98
2019-03-09T01:26:38.468Z,100092.42
2019-03-09T01:27:45.507Z,100094.55
2019-03-09T01:28:52.569Z,100086.05
2019-03-09T01:29:59.228Z,100081.34
2019-03-09T01:31:07.400Z,100076.16
2019-03-09T01:32:14.341Z,100070.26
2019-03-09T01:33:21.581Z,100067.71
2019-03-09T01:34:28.334Z,100078.78
2019-03-09T01:35:35.093Z,100062.17
2019-03-09T01:36:42.122Z,100058.35
2019-03-09T01:37:49.049Z,100058.80
2019-03-09T01:38:56.079Z,100061.34
2019-03-09T01:40:02.797Z,100056.25
2019-03-09T01:41:09.430Z,100060.87
2019-03-09T01:42:16.471Z,100062.53
2019-03-09T01:43:23.516Z,100062.95
2019-03-09T01:44:30.228Z,100055.31
2019-03-09T01:45:36.877Z,100057.05
2019-03-09T01:46:43.559Z,100053.63
2019-03-09T01:47:50.280Z,100048.94
2019-03-09T01:48:57.023Z,100037.05
2019-03-09T01:50:04.031Z,100033.22
2019-03-09T01:51:10.686Z,100015.84
2019-03-09T01:52:17.677Z,100027.19
2019-03-09T01:53:24.378Z,100029.34
2019-03-09T01:54:31.079Z,100035.69
2019-03-09T01:55:38.129Z,100023.78
2019-03-09T01:56:45.168Z,100026.66
2019-03-09T01:57:51.933Z,100024.53
2019-03-09T01:58:58.674Z,100029.63
2019-03-09T02:00:06.686Z,100021.09
2019-03-09T02:01:13.349Z,100030.87
2019-03-09T02:02:20.209Z,100019.02
2019-03-09T02:03:27.019Z,100018.98
2019-03-09T02:04:34.098Z,100009.66
2019-03-09T02:05:40.785Z,100011.38
2019-03-09T02:06:47.990Z,100016.47
2019-03-09T02:07:54.822Z,100007.09
2019-03-09T02:09:01.510Z,99999.47
2019-03-09T02:10:10.044Z,100008.80
2019-03-09T02:11:16.695Z,100005.40
2019-03-09T02:12:23.365Z,100004.98
2019-03-09T02:13:30.607Z,100000.30
2019-03-09T02:14:37.289Z,100001.13
2019-03-09T02:15:44.013Z,99996.52
2019-03-09T02:16:50.665Z,100003.30
2019-03-09T02:17:57.706Z,100001.16
2019-03-09T02:19:04.435Z,99991.83
2019-03-09T02:20:12.683Z,99994.37
2019-03-09T02:21:19.390Z,99989.70
2019-03-09T02:22:26.328Z,99989.70
2019-03-09T02:23:33.042Z,99980.34
2019-03-09T02:24:39.757Z,99979.52
2019-03-09T02:25:46.478Z,99974.42
2019-03-09T02:26:53.534Z,99980.38
2019-03-09T02:28:00.496Z,99979.96
2019-03-09T02:29:07.253Z,99976.97
2019-03-09T02:30:14.376Z,99972.67
2019-03-09T02:31:21.458Z,99973.15
2019-03-09T02:32:28.112Z,99973.56
2019-03-09T02:33:35.144Z,99972.67
2019-03-09T02:34:41.849Z,99968.41
2019-03-09T02:35:48.808Z,99967.58
2019-03-09T02:36:55.470Z,99970.52
2019-03-09T02:38:09.050Z,99959.91
2019-03-09T02:39:33.591Z,99965.45
2019-03-09T02:40:40.663Z,99964.09
2019-03-09T02:41:47.353Z,99964.09
2019-03-09T02:42:54.041Z,99958.96
2019-03-09T02:44:01.504Z,99959.41
2019-03-09T02:45:11.064Z,99959.41
2019-03-09T02:46:17.745Z,99962.37
2019-03-09T02:47:24.817Z,99959.75
2019-03-09T02:48:31.536Z,99955.08
2019-03-09T02:49:38.260Z,99956.32
2019-03-09T02:50:57.473Z,99953.77
2019-03-09T02:52:04.486Z,99954.16
2019-03-09T02:53:11.559Z,99947.37
2019-03-09T02:54:18.932Z,99950.30
2019-03-09T02:55:25.656Z,99944.73
2019-03-09T02:56:32.295Z,99949.80
2019-03-09T02:57:39.031Z,99958.27
2019-03-09T02:58:45.859Z,99948.05
2019-03-09T02:59:52.927Z,99955.66
2019-03-09T03:01:18.441Z,99945.44
2019-03-09T03:02:37.631Z,99941.61
2019-03-09T03:03:44.304Z,99944.98
2019-03-09T03:04:51.263Z,99933.91
2019-03-09T03:05:58.482Z,99948.30
2019-03-09T03:07:05.587Z,99957.22
2019-03-09T03:08:12.678Z,99945.72
2019-03-09T03:09:19.404Z,99957.60
2019-03-09T03:10:26.569Z,99941.42
2019-03-09T03:11:33.802Z,99943.94
2019-03-09T03:12:40.907Z,99943.08
2019-03-09T03:13:47.562Z,99940.50
2019-03-09T03:14:54.555Z,99942.98
2019-03-09T03:16:01.270Z,99934.48
2019-03-09T03:17:07.918Z,99929.83
2019-03-09T03:18:14.571Z,99934.44
2019-03-09T03:19:21.605Z,99935.72
2019-03-09T03:20:28.438Z,99943.33
2019-03-09T03:21:35.133Z,99928.87
2019-03-09T03:22:42.307Z,99932.25
2019-03-09T03:23:49.014Z,99919.88
2019-03-09T03:24:55.672Z,99926.22
2019-03-09T03:26:02.332Z,99918.92
2019-03-09T03:27:09.030Z,99923.58
2019-03-09T03:28:16.108Z,99924.40
2019-03-09T03:29:22.776Z,99927.36
2019-03-09T03:30:29.811Z,99929.50
2019-03-09T03:31:36.906Z,99932.80
2019-03-09T03:32:43.640Z,99940.00
2019-03-09T03:33:50.491Z,99942.48
2019-03-09T03:34:57.193Z,99955.20
2019-03-09T03:36:03.910Z,99953.06
2019-03-09T03:37:10.713Z,99954.72
2019-03-09T03:38:17.758Z,99959.41
2019-03-09T03:39:24.885Z,99958.47
2019-03-09T03:40:31.970Z,99957.61
2019-03-09T03:41:39.288Z,99960.55
2019-03-09T03:42:46.758Z,99962.61
2019-03-09T03:43:53.776Z,99962.20
2019-03-09T03:45:00.788Z,99972.74
2019-03-09T03:46:07.767Z,99961.27
2019-03-09T03:47:18.582Z,99974.40
2019-03-09T03:48:25.871Z,99982.39
2019-03-09T03:49:32.667Z,99980.22
2019-03-09T03:50:39.430Z,99983.95
2019-03-09T03:51:46.292Z,99984.81
2019-03-09T03:52:53.269Z,99988.98
2019-03-09T03:54:00.324Z,99984.64
2019-03-09T03:55:07.697Z,99987.67
2019-03-09T03:56:14.360Z,100004.24
2019-03-09T03:57:21.443Z,99997.77
2019-03-09T03:58:28.216Z,99996.91
2019-03-09T03:59:35.120Z,100001.52
2019-03-09T04:00:41.970Z,100001.08
2019-03-09T04:01:49.001Z,100001.45
2019-03-09T04:02:56.167Z,100006.94
2019-03-09T04:04:02.909Z,100003.91
2019-03-09T04:05:09.563Z,100008.62
2019-03-09T04:06:16.807Z,100005.59
2019-03-09T04:07:23.499Z,100017.42
2019-03-09T04:08:30.544Z,100018.31
2019-03-09T04:09:37.434Z,100020.83
2019-03-09T04:10:44.514Z,100024.69
2019-03-09T04:11:51.956Z,100036.96
2019-03-09T04:12:59.379Z,100030.93
2019-03-09T04:14:06.037Z,100031.76
2019-03-09T04:15:13.143Z,100036.92
2019-03-09T04:16:19.797Z,100046.23
2019-03-09T04:17:26.535Z,100041.17
2019-03-09T04:18:33.232Z,100036.34
2019-03-09T04:19:39.938Z,100046.03
2019-03-09T04:20:47.224Z,100041.27
2019-03-09T04:21:54.180Z,100038.38
2019-03-09T04:23:01.141Z,100038.83
2019-03-09T04:24:08.154Z,100040.48
2019-03-09T04:25:14.796Z,100045.10
2019-03-09T04:26:21.508Z,100044.62
2019-03-09T04:27:28.433Z,100043.86
2019-03-09T04:28:35.064Z,100050.23
2019-03-09T04:29:41.780Z,100045.17
2019-03-09T04:30:48.481Z,100059.23
2019-03-09T04:31:55.198Z,100055.38
2019-03-09T04:33:02.177Z,100034.97
2019-03-09T04:34:09.577Z,100049.03
2019-03-09T04:35:16.679Z,100048.13
2019-03-09T04:36:23.311Z,100039.14
2019-03-09T04:37:29.981Z,100056.06
2019-03-09T04:38:36.718Z,100066.83
2019-03-09T04:39:43.953Z,100065.06
2019-03-09T04:40:50.709Z,100077.92
2019-03-09T04:41:57.711Z,100072.27
2019-03-09T04:43:04.371Z,100081.61
2019-03-09T04:44:11.323Z,100087.00
2019-03-09T04:45:18.829Z,100096.72
2019-03-09T04:46:25.922Z,100100.94
2019-03-09T04:47:32.589Z,100107.76
2019-03-09T04:48:39.277Z,100108.69
2019-03-09T04:49:46.011Z,100104.03
2019-03-09T04:50:52.849Z,100105.83
2019-03-09T04:51:59.541Z,100102.41
2019-03-09T04:53:06.243Z,100107.52
2019-03-09T04:54:13.571Z,100106.72
2019-03-09T04:55:21.530Z,100109.30
2019-03-09T04:56:28.568Z,100101.72
2019-03-09T04:57:35.286Z,100106.91
2019-03-09T04:58:42.070Z,100098.33
2019-03-09T04:59:48.736Z,100095.84
2019-03-09T05:00:55.441Z,100097.29
2019-03-09T05:02:02.684Z,100100.77
2019-03-09T05:03:09.702Z,100100.25
2019-03-09T05:04:55.053Z,100096.17
2019-03-09T05:06:01.720Z,100106.00
2019-03-09T05:07:08.417Z,100103.86
2019-03-09T05:08:46.213Z,100102.59
2019-03-09T05:10:05.677Z,100103.45
2019-03-09T05:11:18.186Z,100106.95
2019-03-09T05:12:26.587Z,100101.16
2019-03-09T05:13:38.608Z,100113.84
2019-03-09T05:14:45.673Z,100114.28
2019-03-09T05:15:52.430Z,100112.27
2019-03-09T05:16:59.492Z,100116.98
2019-03-09T05:18:06.499Z,100111.53
2019-03-09T05:19:13.879Z,100109.97
2019-03-09T05:20:20.537Z,100115.48
2019-03-09T05:21:27.604Z,100114.69
2019-03-09T05:22:34.620Z,100111.37
2019-03-09T05:23:41.258Z,100117.77
2019-03-09T05:24:48.325Z,100130.97
2019-03-09T05:25:55.007Z,100133.90
2019-03-09T05:27:02.057Z,100127.52
2019-03-09T05:28:09.078Z,100130.22
2019-03-09T05:29:16.196Z,100131.97
2019-03-09T05:30:43.165Z,100141.78
2019-03-09T05:31:49.869Z,100141.31
2019-03-09T05:32:56.561Z,100142.70
2019-03-09T05:34:03.521Z,100143.50
2019-03-09T05:35:10.489Z,100136.69
2019-03-09T05:36:17.151Z,100140.92
2019-03-09T05:37:23.843Z,100137.75
2019-03-09T05:38:30.932Z,100145.30
2019-03-09T05:39:37.717Z,100151.41
2019-03-09T05:40:44.373Z,100142.48
2019-03-09T05:41:51.660Z,100140.47
2019-03-09T05:42:58.710Z,100145.56
2019-03-09T05:44:05.384Z,100146.48
2019-03-09T05:45:12.045Z,100150.80
2019-03-09T05:46:18.995Z,100155.95
2019-03-09T05:47:25.696Z,100158.14
2019-03-09T05:48:32.337Z,100160.30
2019-03-09T05:49:39.053Z,100170.91
2019-03-09T05:50:45.773Z,100181.09
2019-03-09T05:52:29.392Z,100176.80
2019-03-09T05:53:36.037Z,100175.53
2019-03-09T05:54:42.708Z,100175.50
2019-03-09T05:55:50.090Z,100181.42
2019-03-09T05:56:56.734Z,100179.82
2019-03-09T05:58:03.379Z,100181.12
2019-03-09T05:59:10.045Z,100179.84
2019-03-09T06:00:18.353Z,100179.46
2019-03-09T06:01:25.455Z,100174.41
2019-03-09T06:02:32.108Z,100174.44
2019-03-09T06:03:38.748Z,100180.42
2019-03-09T06:04:45.736Z,100176.19
2019-03-09T06:06:11.534Z,100180.00
2019-03-09T06:07:18.190Z,100182.55
2019-03-09T06:08:25.301Z,100184.77
2019-03-09T06:09:32.533Z,100192.38
2019-03-09T06:10:39.202Z,100188.56
2019-03-09T06:11:46.148Z,100189.39
2019-03-09T06:12:52.908Z,100183.88
2019-03-09T06:13:59.943Z,100191.89
2019-03-09T06:15:06.674Z,100187.23
2019-03-09T06:16:13.347Z,100190.22
2019-03-09T06:17:20.049Z,100192.72
2019-03-09T06:18:27.117Z,100196.13
2019-03-09T06:19:34.078Z,100198.67
2019-03-09T06:20:40.722Z,100202.52
2019-03-09T06:21:47.455Z,100199.97
2019-03-09T06:22:54.215Z,100196.14
2019-03-09T06:24:00.869Z,100198.67
2019-03-09T06:25:08.319Z,100201.19
2019-03-09T06:26:15.290Z,100198.20
2019-03-09T06:27:22.001Z,100202.44
2019-03-09T06:28:29.194Z,100204.54
2019-03-09T06:29:36.230Z,100199.45
2019-03-09T06:30:43.278Z,100201.16
2019-03-09T06:32:45.502Z,100208.83
2019-03-09T06:33:55.507Z,100204.56
2019-03-09T06:35:02.141Z,100205.81
2019-03-09T06:36:39.411Z,100210.91
2019-03-09T06:37:53.309Z,100218.97
2019-03-09T06:39:21.848Z,100209.97
2019-03-09T06:40:28.887Z,100209.17
2019-03-09T06:42:26.301Z,100206.59
2019-03-09T06:43:32.979Z,100214.19
2019-03-09T06:44:39.941Z,100218.38
2019-03-09T06:45:46.589Z,100221.81
2019-03-09T06:46:53.501Z,100217.48
2019-03-09T06:48:00.748Z,100215.72
2019-03-09T06:49:08.089Z,100218.62
2019-03-09T06:50:20.720Z,100227.16
2019-03-09T06:51:28.112Z,100224.53
2019-03-09T06:52:34.767Z,100233.87
2019-03-09T06:53:43.009Z,100233.87
2019-03-09T06:54:49.723Z,100242.32
2019-03-09T06:55:57.058Z,100246.06
2019-03-09T06:57:13.582Z,100243.91
2019-03-09T06:58:13.622Z,100253.19
2019-03-09T06:59:20.684Z,100246.78
2019-03-09T07:00:42.182Z,100252.77
2019-03-09T07:01:48.867Z,100247.25
2019-03-09T07:02:56.237Z,100251.50
2019-03-09T07:04:03.695Z,100259.12
2019-03-09T07:05:10.659Z,100255.23
2019-03-09T07:06:19.535Z,100256.93
2019-03-09T07:07:26.188Z,100263.72
2019-03-09T07:08:32.866Z,100259.03
2019-03-09T07:09:39.724Z,100259.01
2019-03-09T07:10:47.202Z,100254.25
2019-03-09T07:11:53.908Z,100255.80
2019-03-09T07:13:01.050Z,100267.72
2019-03-09T07:15:21.367Z,100259.23
2019-03-09T07:16:28.089Z,100270.69
2019-03-09T07:17:35.130Z,100286.29
2019-03-09T07:18:44.058Z,100273.05
2019-03-09T07:19:50.784Z,100272.55
2019-03-09T07:20:57.809Z,100274.17
2019-03-09T07:22:04.919Z,100277.89
2019-03-09T07:23:11.551Z,100273.98
2019-03-09T07:24:18.946Z,100273.88
2019-03-09T07:25:25.703Z,100283.94
2019-03-09T07:26:32.696Z,100288.53
2019-03-09T07:27:39.791Z,100290.52
2019-03-09T07:28:46.561Z,100292.16
2019-03-09T07:29:53.532Z,100296.84
2019-03-09T07:31:00.543Z,100299.87
2019-03-09T07:32:07.884Z,100293.02
2019-03-09T07:33:14.662Z,100297.89
2019-03-09T07:34:26.082Z,100297.38
2019-03-09T07:35:32.805Z,100300.34
2019-03-09T07:36:39.488Z,100300.17
2019-03-09T07:37:46.587Z,100299.66
2019-03-09T07:38:53.684Z,100296.60
2019-03-09T07:40:00.384Z,100299.45
2019-03-09T07:41:07.477Z,100299.42
2019-03-09T07:42:14.181Z,100305.29
2019-03-09T07:43:21.218Z,100304.52
2019-03-09T07:44:28.218Z,100307.46
2019-03-09T07:45:34.968Z,100306.13
2019-03-09T07:46:41.868Z,100309.41
2019-03-09T07:47:48.494Z,100317.91
2019-03-09T07:48:55.190Z,100314.94
2019-03-09T07:50:01.935Z,100313.21
2019-03-09T07:51:08.787Z,100305.84
2019-03-09T07:52:39.302Z,100311.36
2019-03-09T07:53:46.035Z,100315.77
2019-03-09T07:54:53.157Z,100320.27
2019-03-09T07:56:00.219Z,100308.68
2019-03-09T07:57:07.122Z,100304.09
2019-03-09T07:58:13.781Z,100301.50
2019-03-09T07:59:20.817Z,100300.54
2019-03-09T08:00:27.552Z,100311.27
2019-03-09T08:01:34.214Z,100314.39
2019-03-09T08:02:41.418Z,100305.88
2019-03-09T08:03:48.130Z,100311.27
2019-03-09T08:04:54.831Z,100312.03
2019-03-09T08:06:01.658Z,100311.23
2019-03-09T08:07:09.364Z,100313.95
2019-03-09T08:08:16.665Z,100316.19
2019-03-09T08:09:24.687Z,100312.73
2019-03-09T08:10:31.727Z,100323.78
2019-03-09T08:11:38.832Z,100319.54
2019-03-09T08:12:45.879Z,100327.90
2019-03-09T08:13:53.111Z,100333.39
2019-03-09T08:15:01.030Z,100338.47
2019-03-09T08:16:08.004Z,100341.89
2019-03-09T08:17:14.745Z,100350.45
2019-03-09T08:18:21.775Z,100349.17
2019-03-09T08:19:28.779Z,100343.68
2019-03-09T08:20:36.169Z,100344.38
2019-03-09T08:21:43.020Z,100340.83
2019-03-09T08:22:50.157Z,100347.98
2019-03-09T08:23:56.902Z,100345.72
2019-03-09T08:25:03.546Z,100341.44
2019-03-09T08:26:10.437Z,100346.00
2019-03-09T08:27:17.144Z,100345.97
2019-03-09T08:28:24.530Z,100337.47
2019-03-09T08:29:31.581Z,100342.45
2019-03-09T08:30:38.233Z,100341.00
2019-03-09T08:31:44.938Z,100331.56
2019-03-09T08:32:51.849Z,100331.56
2019-03-09T08:33:58.830Z,100327.17
2019-03-09T08:35:18.303Z,100330.42
2019-03-09T08:36:26.334Z,100322.52
2019-03-09T08:37:33.721Z,100328.05
2019-03-09T08:38:40.726Z,100326.73
2019-03-09T08:39:47.923Z,100329.98
2019-03-09T08:40:55.435Z,100325.73
2019-03-09T08:42:03.047Z,100323.38
2019-03-09T08:43:10.019Z,100308.35
2019-03-09T08:44:17.070Z,100311.32
2019-03-09T08:45:24.418Z,100298.68
2019-03-09T08:46:31.190Z,100308.88
2019-03-09T08:47:37.956Z,100318.13
2019-03-09T08:48:45.005Z,100315.27
2019-03-09T08:49:51.965Z,100324.00
2019-03-09T08:50:59.447Z,100316.89
2019-03-09T08:52:06.979Z,100321.58
2019-03-09T08:53:13.823Z,100305.07
2019-03-09T08:54:20.667Z,100311.67
2019-03-09T08:55:27.367Z,100318.09
2019-03-09T08:56:34.047Z,100319.41
2019-03-09T08:57:41.268Z,100316.33
2019-03-09T08:58:48.591Z,100314.27
2019-03-09T08:59:56.453Z,100322.75
2019-03-09T09:01:03.302Z,100321.75
2019-03-09T09:02:10.587Z,100329.39
2019-03-09T09:03:17.491Z,100318.30
2019-03-09T09:04:24.258Z,100320.12
2019-03-09T09:05:31.093Z,100328.59
2019-03-09T09:06:38.066Z,100315.98
2019-03-09T09:07:44.825Z,100314.45
2019-03-09T09:08:51.694Z,100297.28
2019-03-09T09:09:58.706Z,100307.89
2019-03-09T09:11:05.840Z,100307.18
2019-03-09T09:12:12.518Z,100302.22
2019-03-09T09:13:19.532Z,100310.98
2019-03-09T09:14:26.642Z,100301.66
2019-03-09T09:15:33.313Z,100307.15
2019-03-09T09:16:40.675Z,100319.48
2019-03-09T09:17:47.775Z,100320.58
2019-03-09T09:18:55.053Z,100318.06
2019-03-09T09:20:01.744Z,100326.08
2019-03-09T09:21:08.899Z,100329.05
2019-03-09T09:22:15.601Z,100325.36
2019-03-09T09:23:32.304Z,100329.84
2019-03-09T09:24:38.959Z,100318.47
2019-03-09T09:25:45.926Z,100326.83
2019-03-09T09:26:52.621Z,100327.05
2019-03-09T09:27:59.284Z,100329.46
2019-03-09T09:29:05.945Z,100319.41
2019-03-09T09:30:23.423Z,100325.88
2019-03-09T09:31:30.086Z,100319.30
2019-03-09T09:32:36.777Z,100332.28
2019-03-09T09:33:43.489Z,100335.14
2019-03-09T09:34:50.530Z,100337.09
2019-03-09T09:35:57.930Z,100337.89
2019-03-09T09:37:04.827Z,100339.36
2019-03-09T09:38:11.542Z,100328.75
2019-03-09T09:39:18.376Z,100332.32
2019-03-09T09:40:26.546Z,100328.41
2019-03-09T09:41:33.569Z,100317.42
2019-03-09T09:42:40.309Z,100320.58
2019-03-09T09:43:47.228Z,100307.25
2019-03-09T09:44:54.389Z,100315.98
2019-03-09T09:46:01.580Z,100326.59
2019-03-09T09:47:08.632Z,100329.95
2019-03-09T09:48:15.431Z,100334.62
2019-03-09T09:49:22.440Z,100326.78
2019-03-09T09:50:29.308Z,100333.64
2019-03-09T09:51:36.505Z,100327.16
2019-03-09T09:52:43.451Z,100330.73
2019-03-09T09:53:51.208Z,100329.72
2019-03-09T09:54:59.427Z,100334.34
2019-03-09T09:56:06.833Z,100329.23
2019-03-09T09:57:13.770Z,100335.29
2019-03-09T09:58:20.476Z,100336.75
2019-03-09T09:59:28.212Z,100336.22
2019-03-09T10:00:35.168Z,100325.95
2019-03-09T10:01:42.053Z,100326.03
2019-03-09T10:02:48.889Z,100324.80
2019-03-09T10:03:55.648Z,100320.54
2019-03-09T10:05:02.806Z,100311.74
2019-03-09T10:06:09.982Z,100316.16
2019-03-09T10:07:16.811Z,100311.48
2019-03-09T10:08:24.013Z,100304.81
2019-03-09T10:09:31.185Z,100307.48
2019-03-09T10:10:38.074Z,100337.80
2019-03-09T10:11:45.109Z,100343.59
2019-03-09T10:12:55.642Z,100343.80
2019-03-09T10:14:01.928Z,100345.83
2019-03-09T10:15:12.967Z,100349.45
2019-03-09T10:16:20.138Z,100346.27
2019-03-09T10:17:27.657Z,100338.29
2019-03-09T10:18:53.585Z,100334.78
2019-03-09T10:20:05.066Z,100333.17
2019-03-09T10:21:12.094Z,100325.57
2019-03-09T10:22:19.129Z,100338.78
2019-03-09T10:23:26.457Z,100334.00
2019-03-09T10:24:33.711Z,100331.66
2019-03-09T10:25:40.365Z,100333.15
2019-03-09T10:26:47.695Z,100332.03
2019-03-09T10:27:54.616Z,100331.13
2019-03-09T10:29:03.064Z,100327.28
2019-03-09T10:30:12.850Z,100319.10
2019-03-09T10:31:19.625Z,100315.88
2019-03-09T10:32:26.686Z,100304.85
2019-03-09T10:33:33.618Z,100307.05
2019-03-09T10:34:40.877Z,100306.67
2019-03-09T10:35:48.386Z,100303.69
2019-03-09T10:36:55.333Z,100306.47
2019-03-09T10:38:02.497Z,100311.34
2019-03-09T10:39:09.852Z,100314.16
2019-03-09T10:40:18.279Z,100322.58
2019-03-09T10:41:26.181Z,100312.45
2019-03-09T10:42:33.311Z,100318.95
2019-03-09T10:43:40.387Z,100333.89
2019-03-09T10:44:49.108Z,100319.24
2019-03-09T10:45:56.402Z,100328.34
2019-03-09T10:47:03.415Z,100313.64
2019-03-09T10:48:10.871Z,100330.30
2019-03-09T10:49:18.529Z,100332.62
2019-03-09T10:50:26.096Z,100335.30
2019-03-09T10:51:33.404Z,100325.88
2019-03-09T10:52:40.333Z,100327.00
2019-03-09T10:53:48.155Z,100318.27
2019-03-09T10:54:57.113Z,100321.27
2019-03-09T10:56:03.767Z,100319.87
2019-03-09T10:57:10.935Z,100330.98
2019-03-09T10:58:18.861Z,100329.34
2019-03-09T10:59:27.216Z,100335.85
2019-03-09T11:00:37.685Z,100327.56
2019-03-09T11:01:45.303Z,100326.78
2019-03-09T11:02:53.622Z,100333.47
2019-03-09T11:04:01.000Z,100337.59
2019-03-09T11:05:08.785Z,100334.34
2019-03-09T11:06:16.097Z,100341.24
2019-03-09T11:07:24.388Z,100343.55
2019-03-09T11:08:31.740Z,100349.86
2019-03-09T11:09:38.520Z,100345.75
2019-03-09T11:10:45.568Z,100347.89
2019-03-09T11:11:52.917Z,100341.00
2019-03-09T11:13:00.095Z,100336.75
2019-03-09T11:14:07.201Z,100342.25
2019-03-09T11:15:14.735Z,100331.42
2019-03-09T11:16:21.878Z,100336.26
2019-03-09T11:17:28.571Z,100338.66
2019-03-09T11:18:35.233Z,100332.08
2019-03-09T11:19:42.217Z,100339.27
2019-03-09T11:20:49.039Z,100333.41
2019-03-09T11:21:55.974Z,100329.19
2019-03-09T11:23:02.846Z,100324.38
2019-03-09T11:24:09.861Z,100332.65
2019-03-09T11:25:17.012Z,100338.87
2019-03-09T11:26:23.877Z,100339.80
2019-03-09T11:27:31.001Z,100341.78
2019-03-09T11:28:38.374Z,100343.98
2019-03-09T11:29:45.477Z,100331.19
2019-03-09T11:30:52.684Z,100339.86
2019-03-09T11:32:00.027Z,100344.94
2019-03-09T11:33:06.793Z,100345.13
2019-03-09T11:34:13.459Z,100329.45
2019-03-09T11:35:20.150Z,100337.73
2019-03-09T11:36:26.883Z,100331.23
2019-03-09T11:37:33.936Z,100328.52
2019-03-09T11:38:40.790Z,100337.03
2019-03-09T11:39:47.794Z,100332.27
2019-03-09T11:40:58.686Z,100320.00
2019-03-09T11:42:03.307Z,100331.48
2019-03-09T11:43:10.378Z,100335.29
2019-03-09T11:44:17.100Z,100334.01
2019-03-09T11:45:24.024Z,100330.50
2019-03-09T11:46:30.789Z,100323.94
2019-03-09T11:47:37.472Z,100331.17
2019-03-09T11:48:44.426Z,100324.86
2019-03-09T11:49:51.174Z,100312.13
2019-03-09T11:50:58.310Z,100312.09
2019-03-09T11:52:05.337Z,100316.09
2019-03-09T11:53:12.292Z,100315.02
2019-03-09T11:54:20.255Z,100311.67
2019-03-09T11:55:27.066Z,100313.28
2019-03-09T11:56:33.944Z,100308.70
2019-03-09T11:57:41.019Z,100303.48
2019-03-09T11:58:48.348Z,100304.45
2019-03-09T11:59:55.403Z,100308.94
2019-03-09T12:01:02.387Z,100306.55
2019-03-09T12:02:09.629Z,100306.71
2019-03-09T12:03:17.080Z,100305.43
2019-03-09T12:04:24.163Z,100303.89
2019-03-09T12:05:30.892Z,100297.53
2019-03-09T12:06:37.667Z,100296.30
2019-03-09T12:07:44.718Z,100295.59
2019-03-09T12:08:51.449Z,100299.59
2019-03-09T12:09:58.435Z,100287.41
2019-03-09T12:11:05.473Z,100287.86
2019-03-09T12:12:12.574Z,100280.84
2019-03-09T12:13:19.619Z,100280.84
2019-03-09T12:14:26.900Z,100288.98
2019-03-09T12:15:34.280Z,100284.69
2019-03-09T12:16:40.967Z,100279.89
2019-03-09T12:19:15.336Z,100293.09
2019-03-09T12:20:26.185Z,100287.38
2019-03-09T12:21:32.896Z,100278.46
2019-03-09T12:22:39.800Z,100274.58
2019-03-09T12:23:46.597Z,100263.41
2019-03-09T12:24:57.004Z,100273.86
2019-03-09T12:26:03.736Z,100261.27
2019-03-09T12:27:12.509Z,100252.86
2019-03-09T12:28:19.290Z,100253.96
2019-03-09T12:29:26.620Z,100236.03
2019-03-09T12:30:33.438Z,100249.33
2019-03-09T12:31:40.419Z,100251.61
2019-03-09T12:32:47.768Z,100245.48
2019-03-09T12:33:55.505Z,100246.23
2019-03-09T12:35:02.304Z,100239.19
2019-03-09T12:36:09.375Z,100242.12
2019-03-09T12:37:16.569Z,100235.88
2019-03-09T12:38:23.734Z,100237.41
2019-03-09T12:39:30.549Z,100225.66
2019-03-09T12:40:41.123Z,100215.41
2019-03-09T12:41:49.604Z,100223.30
2019-03-09T12:42:57.458Z,100210.66
2019-03-09T12:44:04.315Z,100199.76
2019-03-09T12:45:12.180Z,100199.26
2019-03-09T12:46:18.985Z,100194.64
2019-03-09T12:47:27.614Z,100185.91
2019-03-09T12:48:34.532Z,100180.00
2019-03-09T12:49:41.287Z,100180.83
2019-03-09T12:50:48.379Z,100178.68
2019-03-09T12:51:55.127Z,100174.64
2019-03-09T12:53:02.843Z,100165.86
2019-03-09T12:54:09.979Z,100159.03
2019-03-09T12:55:16.694Z,100149.74
2019-03-09T12:56:23.523Z,100129.05
2019-03-09T12:57:30.241Z,100125.16
2019-03-09T12:58:37.748Z,100117.47
2019-03-09T12:59:45.261Z,100116.91
2019-03-09T13:00:52.118Z,100111.52